createdAt,value
2018-10-06T00:01:31.437Z,9.77
2018-10-06T00:03:59.829Z,10.40
2018-10-06T00:06:28.302Z,9.83
2018-10-06T00:08:56.890Z,11.07
2018-10-06T00:11:25.369Z,9.63
2018-10-06T00:13:54.006Z,9.90
2018-10-06T00:16:22.518Z,9.97
2018-10-06T00:18:51.013Z,10.23
2018-10-06T00:21:19.518Z,9.13
2018-10-06T00:23:47.902Z,9.87
2018-10-06T00:26:16.395Z,9.60
2018-10-06T00:28:44.790Z,10.23
2018-10-06T00:31:13.321Z,9.47
2018-10-06T00:33:41.757Z,9.83
2018-10-06T00:36:10.173Z,9.43
2018-10-06T00:38:38.581Z,9.90
2018-10-06T00:41:07.055Z,10.07
2018-10-06T00:43:35.482Z,10.20
2018-10-06T00:46:03.991Z,10.40
2018-10-06T00:48:32.430Z,9.40
2018-10-06T00:51:00.852Z,10.37
2018-10-06T00:53:29.245Z,10.13
2018-10-06T00:55:57.707Z,9.77
2018-10-06T00:58:26.189Z,9.47
2018-10-06T01:00:54.586Z,10.03
2018-10-06T01:03:23.071Z,9.40
2018-10-06T01:05:51.489Z,9.87
2018-10-06T01:08:19.934Z,8.93
2018-10-06T01:10:48.371Z,9.93
2018-10-06T01:13:16.788Z,10.80
2018-10-06T01:15:45.218Z,9.40
2018-10-06T01:18:13.649Z,9.97
2018-10-06T01:20:42.054Z,9.37
2018-10-06T01:23:10.513Z,9.23
2018-10-06T01:25:38.909Z,9.83
2018-10-06T01:28:07.297Z,8.80
2018-10-06T01:30:36.236Z,10.00
2018-10-06T01:33:05.088Z,9.23
2018-10-06T01:35:33.922Z,9.50
2018-10-06T01:41:11.000Z,10.20
2018-10-06T01:43:39.856Z,9.60
2018-10-06T01:46:30.069Z,9.67
2018-10-06T01:48:58.975Z,10.53
2018-10-06T01:51:31.481Z,9.20
2018-10-06T01:54:00.444Z,9.40
2018-10-06T01:56:32.749Z,9.80
2018-10-06T01:59:01.592Z,9.77
2018-10-06T02:01:32.124Z,10.00
2018-10-06T02:05:09.372Z,10.07
2018-10-06T02:07:38.140Z,9.57
2018-10-06T02:10:07.082Z,8.83
2018-10-06T02:21:22.998Z,9.20
2018-10-06T02:23:51.666Z,9.60
2018-10-06T02:26:20.268Z,9.67
2018-10-06T02:28:48.813Z,9.73
2018-10-06T02:31:17.260Z,10.17
2018-10-06T02:33:45.640Z,10.10
2018-10-06T02:36:14.053Z,9.97
2018-10-06T02:38:42.506Z,10.07
2018-10-06T02:41:10.901Z,9.87
2018-10-06T02:43:39.354Z,9.30
2018-10-06T02:46:07.766Z,9.40
2018-10-06T02:48:36.214Z,9.23
2018-10-06T02:51:04.908Z,9.60
2018-10-06T02:53:33.305Z,9.20
2018-10-06T02:56:01.723Z,9.53
2018-10-06T02:58:30.185Z,9.87
2018-10-06T03:00:58.621Z,10.03
2018-10-06T03:03:27.026Z,10.00
2018-10-06T03:05:55.438Z,9.60
2018-10-06T03:08:23.957Z,10.23
2018-10-06T03:10:52.361Z,9.77
2018-10-06T03:13:20.775Z,10.40
2018-10-06T03:15:49.218Z,10.47
2018-10-06T03:18:17.671Z,10.27
2018-10-06T03:20:46.110Z,10.40
2018-10-06T03:23:14.489Z,10.10
2018-10-06T03:25:42.927Z,10.17
2018-10-06T03:28:11.316Z,10.17
2018-10-06T03:30:39.762Z,10.03
2018-10-06T03:33:08.229Z,9.90
2018-10-06T03:35:36.626Z,10.47
2018-10-06T03:38:05.054Z,10.73
2018-10-06T03:40:33.511Z,10.37
2018-10-06T03:43:02.032Z,10.87
2018-10-06T03:45:30.502Z,10.83
2018-10-06T03:47:58.963Z,10.10
2018-10-06T03:50:27.655Z,10.83
2018-10-06T03:52:56.198Z,11.20
2018-10-06T03:55:24.689Z,10.27
2018-10-06T03:57:53.134Z,9.80
2018-10-06T04:00:21.570Z,9.83
2018-10-06T04:02:50.005Z,10.23
2018-10-06T04:05:18.426Z,9.80
2018-10-06T04:07:46.859Z,9.47
2018-10-06T04:10:15.328Z,9.43
2018-10-06T04:12:43.818Z,9.77
2018-10-06T04:15:12.266Z,9.20
2018-10-06T04:17:40.684Z,8.87
2018-10-06T04:20:09.114Z,8.70
2018-10-06T04:22:37.497Z,8.53
2018-10-06T04:25:06.182Z,8.67
2018-10-06T04:27:34.566Z,8.20
2018-10-06T04:30:03.045Z,8.87
2018-10-06T04:32:31.457Z,8.13
2018-10-06T04:34:59.926Z,8.47
2018-10-06T04:37:28.341Z,8.73
2018-10-06T04:39:56.778Z,8.07
2018-10-06T04:42:25.243Z,8.00
2018-10-06T04:44:53.649Z,8.90
2018-10-06T04:47:22.113Z,9.03
2018-10-06T04:49:50.537Z,8.27
2018-10-06T04:52:18.946Z,8.57
2018-10-06T04:54:47.402Z,9.43
2018-10-06T04:57:15.850Z,7.97
2018-10-06T04:59:44.269Z,8.00
2018-10-06T05:02:15.757Z,8.27
2018-10-06T05:04:44.501Z,8.80
2018-10-06T05:07:12.909Z,8.93
2018-10-06T05:09:41.316Z,8.90
2018-10-06T05:12:09.926Z,9.40
2018-10-06T05:14:38.353Z,8.70
2018-10-06T05:17:06.789Z,8.27
2018-10-06T05:19:35.205Z,8.47
2018-10-06T05:22:03.598Z,8.07
2018-10-06T05:24:32.012Z,7.80
2018-10-06T05:27:00.402Z,8.30
2018-10-06T05:29:28.895Z,7.87
2018-10-06T05:31:57.273Z,7.83
2018-10-06T05:34:25.664Z,8.00
2018-10-06T05:36:54.089Z,7.90
2018-10-06T05:39:22.496Z,7.60
2018-10-06T05:41:50.886Z,7.23
2018-10-06T05:44:19.339Z,7.13
2018-10-06T05:46:47.716Z,6.97
2018-10-06T05:49:16.157Z,7.47
2018-10-06T05:51:44.562Z,7.27
2018-10-06T05:54:12.989Z,7.33
2018-10-06T05:56:41.394Z,6.77
2018-10-06T05:59:09.804Z,6.57
2018-10-06T06:01:38.224Z,7.00
2018-10-06T06:04:06.609Z,6.50
2018-10-06T06:06:35.018Z,6.90
2018-10-06T06:09:03.790Z,6.63
2018-10-06T06:11:32.227Z,6.63
2018-10-06T06:14:00.614Z,7.20
2018-10-06T06:16:29.113Z,6.90
2018-10-06T06:18:57.529Z,6.20
2018-10-06T06:21:25.910Z,7.00
2018-10-06T06:23:54.349Z,6.50
2018-10-06T06:26:22.777Z,6.57
2018-10-06T06:28:51.180Z,6.27
2018-10-06T06:31:19.737Z,5.90
2018-10-06T06:33:48.148Z,6.57
2018-10-06T06:36:16.619Z,6.70
2018-10-06T06:38:45.121Z,6.40
2018-10-06T06:41:13.574Z,6.33
2018-10-06T06:43:42.101Z,6.57
2018-10-06T06:46:10.602Z,6.27
2018-10-06T06:48:39.029Z,6.93
2018-10-06T06:51:07.513Z,7.50
2018-10-06T06:53:35.909Z,6.90
2018-10-06T06:56:04.347Z,6.83
2018-10-06T06:58:32.753Z,7.03
2018-10-06T07:01:01.239Z,6.80
2018-10-06T07:03:29.626Z,7.17
2018-10-06T07:05:58.065Z,7.13
2018-10-06T07:08:26.460Z,6.80
2018-10-06T07:10:54.868Z,6.77
2018-10-06T07:13:23.294Z,6.83
2018-10-06T07:15:51.744Z,6.23
2018-10-06T07:18:20.186Z,5.93
2018-10-06T07:20:48.729Z,6.37
2018-10-06T07:23:17.128Z,6.43
2018-10-06T07:25:46.822Z,6.07
2018-10-06T07:28:15.233Z,6.10
2018-10-06T07:30:43.617Z,6.43
2018-10-06T07:33:12.026Z,6.43
2018-10-06T07:35:40.466Z,6.73
2018-10-06T07:38:08.910Z,6.30
2018-10-06T07:40:37.385Z,6.30
2018-10-06T07:43:05.866Z,6.40
2018-10-06T07:45:34.302Z,6.17
2018-10-06T07:48:02.807Z,6.30
2018-10-06T07:50:31.413Z,5.97
2018-10-06T07:52:59.972Z,5.83
2018-10-06T07:55:28.432Z,5.47
2018-10-06T07:57:57.006Z,5.30
2018-10-06T08:00:25.483Z,5.20
2018-10-06T08:02:54.019Z,5.20
2018-10-06T08:05:22.429Z,5.10
2018-10-06T08:07:50.967Z,4.87
2018-10-06T08:10:19.386Z,4.87
2018-10-06T08:12:47.822Z,4.90
2018-10-06T08:15:16.303Z,5.10
2018-10-06T08:17:44.841Z,5.10
2018-10-06T08:20:13.297Z,4.80
2018-10-06T08:22:41.757Z,5.23
2018-10-06T08:25:10.208Z,5.10
2018-10-06T08:27:38.621Z,4.40
2018-10-06T08:30:07.038Z,4.80
2018-10-06T08:32:35.497Z,4.80
2018-10-06T08:35:03.903Z,4.40
2018-10-06T08:37:32.396Z,4.70
2018-10-06T08:40:00.798Z,4.30
2018-10-06T08:42:29.239Z,4.80
2018-10-06T08:44:57.622Z,4.50
2018-10-06T08:47:26.041Z,4.40
2018-10-06T08:49:54.513Z,4.70
2018-10-06T08:52:22.969Z,3.70
2018-10-06T08:54:51.414Z,4.37
2018-10-06T08:57:19.856Z,4.50
2018-10-06T08:59:48.278Z,4.23
2018-10-06T09:02:16.824Z,4.27
2018-10-06T09:04:45.193Z,4.30
2018-10-06T09:07:13.645Z,4.47
2018-10-06T09:09:42.159Z,4.43
2018-10-06T09:12:10.682Z,4.03
2018-10-06T09:14:39.136Z,4.03
2018-10-06T09:17:07.750Z,4.07
2018-10-06T09:19:36.142Z,3.63
2018-10-06T09:22:04.574Z,3.07
2018-10-06T09:24:33.012Z,3.00
2018-10-06T09:27:01.410Z,3.30
2018-10-06T09:29:29.821Z,3.13
2018-10-06T09:31:58.269Z,2.93
2018-10-06T09:34:27.837Z,2.90
2018-10-06T09:36:56.553Z,3.10
2018-10-06T09:39:25.384Z,3.17
2018-10-06T09:41:54.143Z,3.23
2018-10-06T09:44:22.648Z,2.80
2018-10-06T09:46:51.170Z,2.80
2018-10-06T09:49:19.789Z,3.20
2018-10-06T09:51:48.458Z,2.80
2018-10-06T09:54:17.093Z,2.90
2018-10-06T09:56:45.858Z,2.90
2018-10-06T09:59:14.380Z,3.27
2018-10-06T10:01:48.320Z,2.80
2018-10-06T10:04:17.802Z,3.10
2018-10-06T10:06:46.411Z,2.73
2018-10-06T10:09:16.327Z,3.00
2018-10-06T10:11:44.839Z,2.80
2018-10-06T10:14:13.320Z,3.10
2018-10-06T10:16:41.751Z,3.00
2018-10-06T10:19:10.383Z,2.90
2018-10-06T10:21:39.036Z,3.53
2018-10-06T10:24:07.587Z,3.10
2018-10-06T10:26:36.089Z,3.17
2018-10-06T10:29:04.650Z,3.20
2018-10-06T10:31:33.224Z,3.43
2018-10-06T10:34:01.798Z,3.00
2018-10-06T10:36:30.218Z,3.20
2018-10-06T10:38:58.798Z,3.07
2018-10-06T10:41:27.529Z,3.20
2018-10-06T10:43:57.573Z,3.03
2018-10-06T10:46:25.971Z,2.90
2018-10-06T10:48:54.428Z,2.80
2018-10-06T10:51:23.007Z,3.07
2018-10-06T10:53:52.422Z,3.30
2018-10-06T10:56:21.128Z,2.77
2018-10-06T10:58:49.785Z,3.20
2018-10-06T11:01:18.268Z,2.60
2018-10-06T11:03:48.476Z,2.23
2018-10-06T11:06:16.990Z,2.70
2018-10-06T11:08:45.392Z,2.67
2018-10-06T11:11:13.892Z,2.43
2018-10-06T11:13:42.256Z,2.40
2018-10-06T11:16:14.122Z,1.70
2018-10-06T11:18:42.637Z,2.67
2018-10-06T11:21:11.033Z,2.90
2018-10-06T11:23:42.933Z,2.40
2018-10-06T11:26:28.350Z,2.37
2018-10-06T11:28:56.808Z,2.20
2018-10-06T11:31:25.458Z,2.37
2018-10-06T11:33:54.125Z,2.40
2018-10-06T11:36:22.594Z,2.50
2018-10-06T11:38:51.024Z,2.83
2018-10-06T11:41:19.407Z,2.20
2018-10-06T11:43:47.803Z,2.50
2018-10-06T11:46:16.654Z,2.63
2018-10-06T11:48:45.129Z,2.40
2018-10-06T11:51:13.584Z,2.20
2018-10-06T11:53:42.004Z,2.70
2018-10-06T11:56:10.394Z,2.07
2018-10-06T11:58:38.788Z,2.87
2018-10-06T12:01:07.217Z,2.83
2018-10-06T12:03:35.645Z,2.00
2018-10-06T12:06:04.070Z,2.43
2018-10-06T12:08:32.502Z,2.57
2018-10-06T12:11:01.022Z,3.00
2018-10-06T12:13:29.513Z,2.60
2018-10-06T12:15:57.945Z,2.93
2018-10-06T12:18:26.386Z,2.57
2018-10-06T12:20:55.025Z,2.43
2018-10-06T12:23:23.629Z,2.60
2018-10-06T12:25:52.123Z,2.60
2018-10-06T12:28:20.502Z,2.37
2018-10-06T12:30:48.951Z,2.57
2018-10-06T12:33:17.681Z,2.80
2018-10-06T12:35:46.359Z,2.70
2018-10-06T12:38:14.726Z,2.50
2018-10-06T12:40:43.167Z,2.60
2018-10-06T12:43:11.591Z,2.90
2018-10-06T12:45:41.857Z,2.70
2018-10-06T12:48:10.255Z,2.90
2018-10-06T12:50:38.707Z,2.30
2018-10-06T12:53:07.085Z,2.83
2018-10-06T12:55:35.565Z,2.70
2018-10-06T12:58:04.002Z,2.47
2018-10-06T13:00:32.456Z,3.05
2018-10-06T13:03:00.882Z,2.43
2018-10-06T13:05:29.350Z,3.53
2018-10-06T13:07:57.813Z,2.73
2018-10-06T13:10:26.253Z,2.43
2018-10-06T13:12:54.666Z,2.40
2018-10-06T13:15:23.118Z,2.60
2018-10-06T13:17:51.632Z,2.72
2018-10-06T13:20:20.038Z,2.40
2018-10-06T13:22:48.566Z,2.40
2018-10-06T13:25:16.985Z,2.60
2018-10-06T13:27:45.437Z,2.52
2018-10-06T13:30:13.917Z,2.85
2018-10-06T13:32:42.356Z,2.12
2018-10-06T13:35:11.626Z,2.30
2018-10-06T13:37:40.089Z,2.42
2018-10-06T13:40:08.566Z,2.47
2018-10-06T13:42:37.004Z,2.55
2018-10-06T13:45:05.688Z,2.50
2018-10-06T13:47:34.081Z,2.55
2018-10-06T13:50:02.845Z,2.80
2018-10-06T13:52:31.294Z,2.58
2018-10-06T13:54:59.747Z,2.55
2018-10-06T13:57:28.248Z,2.80
2018-10-06T13:59:56.954Z,2.70
2018-10-06T14:02:25.992Z,2.80
2018-10-06T14:04:54.390Z,2.80
2018-10-06T14:07:22.798Z,2.87
2018-10-06T14:09:51.206Z,3.03
2018-10-06T14:12:19.688Z,2.60
2018-10-06T14:14:48.150Z,2.25
2018-10-06T14:17:16.589Z,2.58
2018-10-06T14:19:45.023Z,2.60
2018-10-06T14:22:13.505Z,2.35
2018-10-06T14:24:42.673Z,2.37
2018-10-06T14:27:11.133Z,2.90
2018-10-06T14:29:40.646Z,2.55
2018-10-06T14:32:09.074Z,2.52
2018-10-06T14:34:37.462Z,2.83
2018-10-06T14:37:05.973Z,2.35
2018-10-06T14:39:39.426Z,2.55
2018-10-06T14:42:08.124Z,2.67
2018-10-06T14:44:36.545Z,2.90
2018-10-06T14:47:05.006Z,2.42
2018-10-06T14:49:33.380Z,2.83
2018-10-06T14:52:01.769Z,2.50
2018-10-06T14:54:30.175Z,2.90
2018-10-06T14:56:59.158Z,2.83
2018-10-06T14:59:27.505Z,2.65
2018-10-06T15:01:55.920Z,2.87
2018-10-06T15:04:24.364Z,2.70
2018-10-06T15:06:52.797Z,2.80
2018-10-06T15:09:21.182Z,2.67
2018-10-06T15:11:49.613Z,2.80
2018-10-06T15:14:18.121Z,2.57
2018-10-06T15:16:46.600Z,3.00
2018-10-06T15:19:15.034Z,3.07
2018-10-06T15:21:43.463Z,2.70
2018-10-06T15:24:11.838Z,2.97
2018-10-06T15:26:40.305Z,2.77
2018-10-06T15:29:08.726Z,2.80
2018-10-06T15:31:37.260Z,2.80
2018-10-06T15:34:05.697Z,3.00
2018-10-06T15:36:34.187Z,2.93
2018-10-06T15:39:02.608Z,2.53
2018-10-06T15:41:31.025Z,3.07
2018-10-06T15:43:59.438Z,2.73
2018-10-06T15:46:29.219Z,2.73
2018-10-06T15:48:58.022Z,2.90
2018-10-06T15:51:26.775Z,3.00
2018-10-06T15:53:55.265Z,3.00
2018-10-06T15:56:23.813Z,2.83
2018-10-06T15:58:52.237Z,3.10
2018-10-06T16:01:21.064Z,3.07
2018-10-06T16:03:49.499Z,3.43
2018-10-06T16:06:17.995Z,2.97
2018-10-06T16:08:46.497Z,3.33
2018-10-06T16:11:14.937Z,3.43
2018-10-06T16:13:43.463Z,3.47
2018-10-06T16:16:11.900Z,3.30
2018-10-06T16:18:40.371Z,3.37
2018-10-06T16:21:08.869Z,3.20
2018-10-06T16:23:37.463Z,3.47
2018-10-06T16:26:05.849Z,3.33
2018-10-06T16:28:34.221Z,3.10
2018-10-06T16:31:02.649Z,3.30
2018-10-06T16:33:31.143Z,3.40
2018-10-06T16:35:59.490Z,3.13
2018-10-06T16:38:27.930Z,3.17
2018-10-06T16:40:56.359Z,3.60
2018-10-06T16:43:24.775Z,3.33
2018-10-06T16:45:53.250Z,3.33
2018-10-06T16:48:28.017Z,3.63
2018-10-06T16:50:56.400Z,3.37
2018-10-06T16:53:24.795Z,3.40
2018-10-06T16:55:53.201Z,3.40
2018-10-06T16:58:21.669Z,3.40
2018-10-06T17:00:50.104Z,3.30
2018-10-06T17:03:18.547Z,3.40
2018-10-06T17:05:47.029Z,3.63
2018-10-06T17:08:15.442Z,3.30
2018-10-06T17:10:43.866Z,3.17
2018-10-06T17:13:12.272Z,3.70
2018-10-06T17:15:40.703Z,3.47
2018-10-06T17:18:09.149Z,3.70
2018-10-06T17:20:37.578Z,3.77
2018-10-06T17:23:06.057Z,3.50
2018-10-06T17:25:34.448Z,3.50
2018-10-06T17:28:02.911Z,3.70
2018-10-06T17:30:31.357Z,3.63
2018-10-06T17:32:59.822Z,4.10
2018-10-06T17:35:28.250Z,3.90
2018-10-06T17:37:56.710Z,3.60
2018-10-06T17:40:25.127Z,3.80
2018-10-06T17:42:53.542Z,3.80
2018-10-06T17:45:22.000Z,3.73
2018-10-06T17:47:50.425Z,3.97
2018-10-06T17:50:18.919Z,3.80
2018-10-06T17:52:47.271Z,3.70
2018-10-06T17:55:15.694Z,3.93
2018-10-06T17:57:44.199Z,4.50
2018-10-06T18:00:12.701Z,3.90
2018-10-06T18:02:41.171Z,4.30
2018-10-06T18:05:09.603Z,4.53
2018-10-06T18:07:38.038Z,4.00
2018-10-06T18:10:06.502Z,4.37
2018-10-06T18:12:34.948Z,4.30
2018-10-06T18:15:03.377Z,3.80
2018-10-06T18:17:31.814Z,4.10
2018-10-06T18:20:00.221Z,4.00
2018-10-06T18:22:28.766Z,4.07
2018-10-06T18:24:57.161Z,3.80
2018-10-06T18:27:25.576Z,3.97
2018-10-06T18:29:54.191Z,4.27
2018-10-06T18:32:22.597Z,4.40
2018-10-06T18:34:50.989Z,4.47
2018-10-06T18:37:19.649Z,4.00
2018-10-06T18:39:48.791Z,3.90
2018-10-06T18:42:17.318Z,4.07
2018-10-06T18:44:45.752Z,4.07
2018-10-06T18:47:14.194Z,4.30
2018-10-06T18:49:42.609Z,4.13
2018-10-06T18:52:11.053Z,4.43
2018-10-06T18:54:39.688Z,4.47
2018-10-06T18:57:08.271Z,4.67
2018-10-06T18:59:36.714Z,4.40
2018-10-06T19:02:05.137Z,4.10
2018-10-06T19:04:34.598Z,4.73
2018-10-06T19:07:03.002Z,4.70
2018-10-06T19:09:31.563Z,4.50
2018-10-06T19:11:59.965Z,4.90
2018-10-06T19:14:28.564Z,5.13
2018-10-06T19:16:57.037Z,4.73
2018-10-06T19:19:25.561Z,5.10
2018-10-06T19:21:54.163Z,4.90
2018-10-06T19:24:22.589Z,5.00
2018-10-06T19:26:51.469Z,6.10
2018-10-06T19:29:19.887Z,7.20
2018-10-06T19:31:48.585Z,12.53
2018-10-06T19:34:17.078Z,9.27
2018-10-06T19:36:45.592Z,8.20
2018-10-06T19:39:20.776Z,5.83
2018-10-06T19:41:51.859Z,5.60
2018-10-06T19:44:20.415Z,5.40
2018-10-06T19:46:52.736Z,4.97
2018-10-06T19:49:22.570Z,5.00
2018-10-06T19:51:51.038Z,4.73
2018-10-06T19:54:20.157Z,5.03
2018-10-06T19:56:48.588Z,4.60
2018-10-06T19:59:17.039Z,4.63
2018-10-06T20:01:45.495Z,4.87
2018-10-06T20:04:13.965Z,4.63
2018-10-06T20:06:42.381Z,4.90
2018-10-06T20:09:11.570Z,4.53
2018-10-06T20:11:40.046Z,4.43
2018-10-06T20:14:08.764Z,4.67
2018-10-06T20:16:38.398Z,4.67
2018-10-06T20:19:06.972Z,4.80
2018-10-06T20:21:35.725Z,4.47
2018-10-06T20:24:04.206Z,4.80
2018-10-06T20:26:32.615Z,4.50
2018-10-06T20:29:01.059Z,4.50
2018-10-06T20:31:29.514Z,4.97
2018-10-06T20:33:57.998Z,5.33
2018-10-06T20:36:26.482Z,5.23
2018-10-06T20:38:54.917Z,5.30
2018-10-06T20:41:23.341Z,5.40
2018-10-06T20:43:51.832Z,5.27
2018-10-06T20:46:20.350Z,6.30
2018-10-06T20:48:48.747Z,5.53
2018-10-06T20:51:17.129Z,5.77
2018-10-06T20:53:45.602Z,5.73
2018-10-06T20:56:14.034Z,5.70
2018-10-06T20:58:42.885Z,6.10
2018-10-06T21:01:11.319Z,6.13
2018-10-06T21:03:40.092Z,6.80
2018-10-06T21:06:08.525Z,6.33
2018-10-06T21:08:36.983Z,6.07
2018-10-06T21:11:05.470Z,6.20
2018-10-06T21:13:33.960Z,6.33
2018-10-06T21:16:02.421Z,5.17
2018-10-06T21:18:30.989Z,5.50
2018-10-06T21:20:59.350Z,5.60
2018-10-06T21:23:27.760Z,6.07
2018-10-06T21:25:56.197Z,6.10
2018-10-06T21:28:24.673Z,6.20
2018-10-06T21:30:53.119Z,6.17
2018-10-06T21:33:21.525Z,6.50
2018-10-06T21:35:49.995Z,6.30
2018-10-06T21:38:18.466Z,6.13
2018-10-06T21:40:46.929Z,6.50
2018-10-06T21:43:15.352Z,6.03
2018-10-06T21:45:44.165Z,6.90
2018-10-06T21:48:12.613Z,6.67
2018-10-06T21:50:41.070Z,6.30
2018-10-06T21:53:09.476Z,6.37
2018-10-06T21:55:37.890Z,6.53
2018-10-06T21:58:06.366Z,7.20
2018-10-06T22:00:34.890Z,6.63
2018-10-06T22:03:03.337Z,6.80
2018-10-06T22:05:31.869Z,6.40
2018-10-06T22:08:00.345Z,6.43
2018-10-06T22:10:28.805Z,6.63
2018-10-06T22:12:57.261Z,6.57
2018-10-06T22:15:25.697Z,6.43
2018-10-06T22:17:54.169Z,6.07
2018-10-06T22:20:22.620Z,5.70
2018-10-06T22:22:51.115Z,6.37
2018-10-06T22:25:19.605Z,6.00
2018-10-06T22:27:48.263Z,6.10
2018-10-06T22:30:16.693Z,5.77
2018-10-06T22:32:45.090Z,5.60
2018-10-06T22:35:13.526Z,5.87
2018-10-06T22:37:41.925Z,6.27
2018-10-06T22:40:10.329Z,6.33
2018-10-06T22:42:38.763Z,5.97
2018-10-06T22:45:07.442Z,6.07
2018-10-06T22:47:36.094Z,6.17
2018-10-06T22:50:05.123Z,6.20
2018-10-06T22:52:33.541Z,5.60
2018-10-06T22:55:02.067Z,6.07
2018-10-06T22:57:30.470Z,6.27
2018-10-06T22:59:58.984Z,5.53
2018-10-06T23:02:27.405Z,5.77
2018-10-06T23:04:55.885Z,6.30
2018-10-06T23:07:24.291Z,5.90
2018-10-06T23:09:52.705Z,6.00
2018-10-06T23:12:21.105Z,5.53
2018-10-06T23:14:49.653Z,5.80
2018-10-06T23:17:18.055Z,6.23
2018-10-06T23:19:46.578Z,6.17
2018-10-06T23:22:15.014Z,6.23
2018-10-06T23:24:43.459Z,6.17
2018-10-06T23:27:11.878Z,6.30
2018-10-06T23:29:40.318Z,6.30
2018-10-06T23:32:08.736Z,6.70
2018-10-06T23:34:37.134Z,5.93
2018-10-06T23:37:05.570Z,5.97
2018-10-06T23:39:34.009Z,5.97
2018-10-06T23:42:02.629Z,5.80
2018-10-06T23:44:31.037Z,5.90
2018-10-06T23:46:59.486Z,6.10
2018-10-06T23:49:27.910Z,6.10
2018-10-06T23:51:56.317Z,6.00
2018-10-06T23:54:24.716Z,6.30
2018-10-06T23:56:53.138Z,6.80
2018-10-06T23:59:21.522Z,5.57
